Fuerteventura, Spain

10:56 PM WEST am 28. April 2017 (GMT +0100)
Tuineje | | Change Station

Höhe 0 ft 28.35 °N, 14.03 °W | Updated 1 minute ago

Heiter
Heiter
72.0 °F
gefühlte 75 °F
N
5.0
Wind Wechselnd Wind aus Südwest
Gusts 9.9 mph

Heute
Max. -- | schwach -- °F
--% Regenrisiko
Gestern
Max. -- | schwach -- °F
Precip. -- inch
Druck 29.92 inch
Sichtweite 6.2 Meilen
Wolken Few 3000 ft
Hitzeindex 75 °F
Taupunkt 61 °F
Feuchtigkeit 68%
Regen 0.00 inch
Schneehöhe Nicht verfügbar..
7:18 AM 8:29 PM
Erstes Viertel, 9% visible
METAR GCFV 282130Z VRB01KT 9999 FEW030 23/17 Q1013
Druck 29.92 inch
Sichtweite 6.2 Meilen
Wolken Few 3000 ft
Hitzeindex 75 °F
Taupunkt 61 °F
Feuchtigkeit 68%
Regen 0.00 inch
Schneehöhe Nicht verfügbar..
7:18 AM 8:29 PM
Erstes Viertel, 9% visible
METAR GCFV 282130Z VRB01KT 9999 FEW030 23/17 Q1013

Get Severe Weather Alerts

Thanks for signing up!

Be on the lookout for a verification email in your inbox.

You'll start receiving the daily forecast at 8 AM.

×

10-Day Weather Forecast

×

Almanac

Astronomie

Apr. 28, 2017 Aufgang Untergang
Genaue Zeit
Bürgerliche Dämmerung
Nautische Dämmerung
Astronomische Dämmerung
Mond
Länge des sichtbaren Lichts
Tageslänge
Tomorrow will be .
, % of the Moon is Illuminated

Heutige Rekorde

Country Highs Country Lows

Community

WunderPhotos

WunderBlog® & News

Nearby

Luftqualität

  Luftqualität LQ Index Schadstoff
Not available.

Schneehöhe

Station Depth Höhe

Erdbebenaktivität

Stadt Distance Mag. Time & Date
Minimum magnitude displayed is 2.5.

küstennahe Wassertemperaturen

Ort Temperatur

Stations

Wetterstationen in der Umgebung

Stationsstandort Temp. Windchill Taupunkt Feuchtigkeit Wind Precip. Höhe Aktualisiert Art